createdAt,value
2022-12-13T00:01:52.055Z,98232.34
2022-12-13T00:04:20.955Z,98228.31
2022-12-13T00:06:50.843Z,98232.69
2022-12-13T00:09:21.672Z,98231.88
2022-12-13T00:11:49.306Z,98230.97
2022-12-13T00:14:17.131Z,98235.53
2022-12-13T00:16:49.150Z,98226.88
2022-12-13T00:19:19.588Z,98226.16
2022-12-13T00:21:46.441Z,98228.38
2022-12-13T00:24:13.340Z,98232.25
2022-12-13T00:26:40.465Z,98237.75
2022-12-13T00:29:12.104Z,98227.84
2022-12-13T00:34:31.525Z,98228.34
2022-12-13T00:37:00.347Z,98229.72
2022-12-13T00:39:28.479Z,98229.84
2022-12-13T00:41:57.986Z,98234.03
2022-12-13T00:44:27.879Z,98225.47
2022-12-13T00:46:54.946Z,98220.28
2022-12-13T00:49:27.864Z,98220.00
2022-12-13T00:51:54.967Z,98221.47
2022-12-13T00:54:21.827Z,98210.03
2022-12-13T00:56:51.730Z,98213.56
2022-12-13T00:59:19.790Z,98214.38
2022-12-13T01:01:46.934Z,98206.72
2022-12-13T01:04:16.251Z,98213.38
2022-12-13T01:06:46.082Z,98205.19
2022-12-13T01:09:19.088Z,98211.50
2022-12-13T01:11:47.221Z,98215.13
2022-12-13T01:14:17.939Z,98205.84
2022-12-13T01:16:45.017Z,98205.00
2022-12-13T01:19:14.032Z,98201.81
2022-12-13T01:21:40.935Z,98208.09
2022-12-13T01:24:10.768Z,98203.22
2022-12-13T01:26:37.333Z,98202.84
2022-12-13T01:29:05.612Z,98205.25
2022-12-13T01:31:32.337Z,98210.28
2022-12-13T01:33:59.021Z,98201.47
2022-12-13T01:36:27.842Z,98202.31
2022-12-13T01:38:57.992Z,98208.47
2022-12-13T01:41:27.865Z,98203.63
2022-12-13T01:44:00.902Z,98199.97
2022-12-13T01:46:27.698Z,98210.41
2022-12-13T01:49:05.797Z,98202.91
2022-12-13T01:51:59.555Z,98201.09
2022-12-13T01:54:33.693Z,98206.06
2022-12-13T01:57:04.718Z,98195.03
2022-12-13T01:59:32.529Z,98201.50
2022-12-13T02:02:01.020Z,98191.72
2022-12-13T02:04:46.713Z,98191.25
2022-12-13T02:07:22.854Z,98181.94
2022-12-13T02:09:56.510Z,98183.13
2022-12-13T02:12:30.098Z,98174.09
2022-12-13T02:15:12.143Z,98182.47
2022-12-13T02:18:01.743Z,98181.88
2022-12-13T02:20:43.404Z,98177.91
2022-12-13T02:23:21.341Z,98179.75
2022-12-13T02:26:19.042Z,98178.03
2022-12-13T02:29:30.499Z,98178.22
2022-12-13T02:32:09.927Z,98185.44
2022-12-13T02:35:22.465Z,98184.22
2022-12-13T02:38:06.027Z,98175.28
2022-12-13T02:40:45.130Z,98177.91
2022-12-13T02:43:22.931Z,98175.56
2022-12-13T02:45:53.554Z,98174.19
2022-12-13T02:48:27.366Z,98171.38
2022-12-13T02:50:55.362Z,98176.31
2022-12-13T02:53:23.465Z,98175.06
2022-12-13T02:55:50.433Z,98164.59
2022-12-13T02:58:22.523Z,98167.31
2022-12-13T03:01:28.939Z,98167.03
2022-12-13T03:04:26.225Z,98166.53
2022-12-13T03:07:07.517Z,98162.41
2022-12-13T03:09:44.143Z,98163.69
2022-12-13T03:15:50.666Z,98161.88
2022-12-13T03:18:23.193Z,98151.88
2022-12-13T03:20:53.982Z,98156.34
2022-12-13T03:23:21.766Z,98156.72
2022-12-13T03:25:52.920Z,98145.22
2022-12-13T03:28:20.038Z,98152.09
2022-12-13T03:30:46.907Z,98152.09
2022-12-13T03:33:13.559Z,98157.34
2022-12-13T03:35:45.441Z,98147.44
2022-12-13T03:38:22.294Z,98157.06
2022-12-13T03:40:52.927Z,98147.97
2022-12-13T03:43:22.217Z,98147.75
2022-12-13T03:45:51.075Z,98144.31
2022-12-13T03:48:22.817Z,98139.75
2022-12-13T03:50:51.164Z,98141.16
2022-12-13T03:53:23.078Z,98139.94
2022-12-13T03:56:01.074Z,98135.09
2022-12-13T03:58:34.810Z,98135.31
2022-12-13T04:01:07.754Z,98135.22
2022-12-13T04:03:35.630Z,98140.06
2022-12-13T04:06:02.290Z,98137.91
2022-12-13T04:08:28.881Z,98134.78
2022-12-13T04:10:55.529Z,98132.78
2022-12-13T04:13:34.172Z,98133.78
2022-12-13T04:16:02.581Z,98134.13
2022-12-13T04:18:29.407Z,98135.13
2022-12-13T04:20:57.311Z,98127.44
2022-12-13T04:23:23.879Z,98125.63
2022-12-13T04:25:50.613Z,98115.53
2022-12-13T04:28:21.551Z,98122.72
2022-12-13T04:30:53.797Z,98121.91
2022-12-13T04:33:24.660Z,98119.69
2022-12-13T04:35:51.440Z,98121.00
2022-12-13T04:38:18.661Z,98115.25
2022-12-13T04:40:45.838Z,98118.16
2022-12-13T04:43:12.578Z,98112.41
2022-12-13T04:45:39.235Z,98112.72
2022-12-13T04:48:06.600Z,98106.75
2022-12-13T04:50:33.900Z,98117.88
2022-12-13T04:53:00.842Z,98116.25
2022-12-13T04:55:27.833Z,98116.25
2022-12-13T04:57:54.626Z,98118.06
2022-12-13T05:00:23.067Z,98119.16
2022-12-13T05:02:49.822Z,98118.69
2022-12-13T05:05:16.713Z,98117.03
2022-12-13T05:07:43.967Z,98119.97
2022-12-13T05:10:11.820Z,98110.28
2022-12-13T05:12:38.537Z,98119.78
2022-12-13T05:15:06.565Z,98112.41
2022-12-13T05:17:33.434Z,98114.22
2022-12-13T05:20:00.038Z,98123.31
2022-12-13T05:22:35.368Z,98121.59
2022-12-13T05:25:01.960Z,98125.31
2022-12-13T05:27:28.719Z,98125.00
2022-12-13T05:30:04.380Z,98136.19
2022-12-13T05:32:44.043Z,98128.53
2022-12-13T05:35:23.123Z,98132.16
2022-12-13T05:37:53.689Z,98130.44
2022-12-13T05:40:25.706Z,98129.63
2022-12-13T05:42:52.256Z,98138.94
2022-12-13T05:45:29.555Z,98134.09
2022-12-13T05:47:56.230Z,98130.72
2022-12-13T05:50:23.151Z,98142.34
2022-12-13T05:52:50.340Z,98136.59
2022-12-13T05:55:17.625Z,98123.88
2022-12-13T05:57:50.343Z,98123.88
2022-12-13T06:00:29.127Z,98116.03
2022-12-13T06:03:00.384Z,98119.34
2022-12-13T06:05:28.998Z,98115.03
2022-12-13T06:07:57.443Z,98108.75
2022-12-13T06:10:24.935Z,98104.63
2022-12-13T06:13:05.473Z,98110.47
2022-12-13T06:15:49.139Z,98104.19
2022-12-13T06:18:15.715Z,98105.81
2022-12-13T06:20:42.376Z,98103.31
2022-12-13T06:23:09.144Z,98102.38
2022-12-13T06:25:36.930Z,98097.25
2022-12-13T06:28:04.463Z,98105.72
2022-12-13T06:30:31.287Z,98107.63
2022-12-13T06:32:58.485Z,98109.94
2022-12-13T06:35:30.181Z,98111.75
2022-12-13T06:38:01.210Z,98106.03
2022-12-13T06:40:30.524Z,98109.22
2022-12-13T06:42:57.537Z,98108.66
2022-12-13T06:45:25.314Z,98109.75
2022-12-13T06:47:52.035Z,98115.00
2022-12-13T06:50:18.700Z,98120.97
2022-12-13T06:52:48.288Z,98116.91
2022-12-13T06:55:24.017Z,98119.22
2022-12-13T06:57:51.903Z,98116.50
2022-12-13T07:00:21.948Z,98127.69
2022-12-13T07:02:55.964Z,98110.34
2022-12-13T07:05:23.488Z,98109.63
2022-12-13T07:07:50.207Z,98120.72
2022-12-13T07:10:22.121Z,98122.16
2022-12-13T07:12:50.144Z,98124.47
2022-12-13T07:15:19.154Z,98127.09
2022-12-13T07:17:50.360Z,98115.06
2022-12-13T07:20:34.712Z,98124.38
2022-12-13T07:23:01.484Z,98132.13
2022-12-13T07:25:29.472Z,98128.00
2022-12-13T07:28:08.147Z,98139.69
2022-12-13T07:30:41.189Z,98127.19
2022-12-13T07:33:09.215Z,98138.97
2022-12-13T07:35:36.994Z,98140.22
2022-12-13T07:38:05.638Z,98144.06
2022-12-13T07:40:39.606Z,98148.00
2022-12-13T07:43:07.092Z,98132.03
2022-12-13T07:45:34.216Z,98136.81
2022-12-13T07:48:04.404Z,98140.84
2022-12-13T07:50:37.351Z,98139.03
2022-12-13T07:53:06.604Z,98136.03
2022-12-13T07:55:34.118Z,98131.47
2022-12-13T07:58:12.402Z,98128.06
2022-12-13T08:00:40.339Z,98126.72
2022-12-13T08:03:24.381Z,98137.84
2022-12-13T08:06:01.659Z,98129.97
2022-12-13T08:08:30.821Z,98132.22
2022-12-13T08:11:03.345Z,98136.66
2022-12-13T08:13:29.928Z,98139.69
2022-12-13T08:16:04.457Z,98136.13
2022-12-13T08:18:50.915Z,98142.63
2022-12-13T08:21:51.706Z,98139.47
2022-12-13T08:24:04.456Z,98144.81
2022-12-13T08:26:31.050Z,98149.66
2022-12-13T08:28:57.700Z,98150.97
2022-12-13T08:31:24.592Z,98139.56
2022-12-13T08:33:51.520Z,98136.09
2022-12-13T08:36:18.420Z,98139.44
2022-12-13T08:38:45.880Z,98142.78
2022-12-13T08:41:13.686Z,98139.84
2022-12-13T08:43:40.492Z,98147.91
2022-12-13T08:46:10.399Z,98148.41
2022-12-13T08:48:37.060Z,98144.50
2022-12-13T08:51:13.857Z,98151.78
2022-12-13T08:53:51.752Z,98142.97
2022-12-13T08:56:18.893Z,98152.06
2022-12-13T08:58:49.904Z,98152.66
2022-12-13T09:01:16.615Z,98151.41
2022-12-13T09:03:43.254Z,98150.88
2022-12-13T09:06:15.279Z,98146.00
2022-12-13T09:08:43.484Z,98148.31
2022-12-13T09:11:22.515Z,98150.50
2022-12-13T09:14:13.930Z,98148.25
2022-12-13T09:16:50.642Z,98157.13
2022-12-13T09:19:24.934Z,98154.75
2022-12-13T09:22:02.817Z,98149.66
2022-12-13T09:24:36.732Z,98149.53
2022-12-13T09:27:09.697Z,98151.94
2022-12-13T09:29:58.552Z,98144.47
2022-12-13T09:32:27.555Z,98143.69
2022-12-13T09:34:59.227Z,98129.69
2022-12-13T09:37:32.256Z,98127.88
2022-12-13T09:40:15.972Z,98135.69
2022-12-13T09:43:12.468Z,98141.44
2022-12-13T09:45:45.639Z,98137.19
2022-12-13T09:48:22.524Z,98132.00
2022-12-13T09:51:18.264Z,98132.59
2022-12-13T09:53:55.917Z,98129.63
2022-12-13T09:56:23.994Z,98135.34
2022-12-13T09:58:52.871Z,98140.09
2022-12-13T10:01:22.860Z,98132.16
2022-12-13T10:03:55.934Z,98133.31
2022-12-13T10:06:24.762Z,98134.22
2022-12-13T10:08:58.597Z,98132.38
2022-12-13T10:11:32.166Z,98125.38
2022-12-13T10:14:41.830Z,98119.31
2022-12-13T10:17:12.652Z,98124.34
2022-12-13T10:19:42.723Z,98117.47
2022-12-13T10:22:14.120Z,98124.31
2022-12-13T10:25:37.719Z,98127.41
2022-12-13T10:28:06.955Z,98117.97
2022-12-13T10:30:42.124Z,98120.81
2022-12-13T10:33:37.480Z,98112.28
2022-12-13T10:36:06.384Z,98100.72
2022-12-13T10:38:44.201Z,98106.94
2022-12-13T10:41:33.390Z,98100.94
2022-12-13T10:44:12.374Z,98105.47
2022-12-13T10:46:41.244Z,98114.94
2022-12-13T10:49:21.091Z,98110.16
2022-12-13T10:51:50.407Z,98109.66
2022-12-13T10:54:48.179Z,98108.88
2022-12-13T10:57:16.687Z,98094.41
2022-12-13T10:59:46.210Z,98090.56
2022-12-13T11:02:36.305Z,98096.88
2022-12-13T11:05:47.868Z,98090.69
2022-12-13T11:08:22.410Z,98078.53
2022-12-13T11:10:59.228Z,98083.53
2022-12-13T11:13:58.194Z,98079.84
2022-12-13T11:16:30.698Z,98079.63
2022-12-13T11:19:05.901Z,98080.31
2022-12-13T11:21:36.936Z,98081.53
2022-12-13T11:24:06.020Z,98079.94
2022-12-13T11:26:36.863Z,98076.50
2022-12-13T11:29:49.682Z,98071.16
2022-12-13T11:32:23.362Z,98068.88
2022-12-13T11:35:25.094Z,98049.69
2022-12-13T11:38:15.107Z,98048.50
2022-12-13T11:40:46.504Z,98046.50
2022-12-13T11:43:38.636Z,98053.34
2022-12-13T11:46:20.437Z,98054.16
2022-12-13T11:48:58.955Z,98052.69
2022-12-13T11:51:35.291Z,98045.84
2022-12-13T11:54:23.997Z,98033.69
2022-12-13T11:57:00.725Z,98027.78
2022-12-13T11:59:39.547Z,98013.44
2022-12-13T12:02:21.809Z,98023.34
2022-12-13T12:05:00.855Z,98027.88
2022-12-13T12:07:58.516Z,98020.63
2022-12-13T12:10:41.806Z,98024.38
2022-12-13T12:13:19.652Z,98014.72
2022-12-13T12:15:56.113Z,98009.78
2022-12-13T12:18:23.792Z,98014.59
2022-12-13T12:21:20.789Z,98019.78
2022-12-13T12:24:08.920Z,98004.75
2022-12-13T12:27:00.099Z,98005.69
2022-12-13T12:29:46.896Z,98004.44
2022-12-13T12:32:32.168Z,98000.28
2022-12-13T12:35:26.335Z,98002.56
2022-12-13T12:38:23.937Z,97994.75
2022-12-13T12:41:17.351Z,97993.16
2022-12-13T12:43:48.366Z,97989.75
2022-12-13T12:46:21.072Z,97994.16
2022-12-13T12:49:02.246Z,97999.16
2022-12-13T12:51:42.743Z,98000.91
2022-12-13T12:54:33.725Z,98000.22
2022-12-13T12:57:29.521Z,98005.59
2022-12-13T13:00:09.925Z,97999.25
2022-12-13T13:02:55.692Z,97999.50
2022-12-13T13:05:42.056Z,97997.59
2022-12-13T13:08:16.868Z,98000.03
2022-12-13T13:10:50.081Z,98000.44
2022-12-13T13:13:35.742Z,97988.44
2022-12-13T13:16:32.750Z,97986.28
2022-12-13T13:19:31.954Z,97982.66
2022-12-13T13:22:01.592Z,97982.66
2022-12-13T13:24:32.789Z,98002.25
2022-12-13T13:27:20.681Z,98002.03
2022-12-13T13:29:53.052Z,98004.72
2022-12-13T13:32:29.499Z,98006.25
2022-12-13T13:35:28.730Z,98005.31
2022-12-13T13:37:56.263Z,98000.94
2022-12-13T13:40:30.657Z,98005.53
2022-12-13T13:43:05.672Z,97995.31
2022-12-13T13:45:54.505Z,97985.13
2022-12-13T13:48:40.342Z,97990.13
2022-12-13T13:51:10.072Z,97984.19
2022-12-13T13:54:14.146Z,97986.97
2022-12-13T13:57:14.691Z,97977.22
2022-12-13T14:00:12.275Z,97966.13
2022-12-13T14:03:34.550Z,97968.88
2022-12-13T14:06:41.816Z,97968.47
2022-12-13T14:09:39.392Z,97963.50
2022-12-13T14:12:20.576Z,97954.81
2022-12-13T14:15:23.411Z,97964.09
2022-12-13T14:18:05.421Z,97970.34
2022-12-13T14:20:45.395Z,97972.44
2022-12-13T14:23:24.836Z,97975.41
2022-12-13T14:26:20.896Z,97975.19
2022-12-13T14:29:04.064Z,97973.78
2022-12-13T14:31:42.707Z,97977.59
2022-12-13T14:34:25.445Z,97974.16
2022-12-13T14:36:57.558Z,97975.94
2022-12-13T14:39:29.542Z,97969.66
2022-12-13T14:41:58.825Z,97975.81
2022-12-13T14:44:28.509Z,97975.31
2022-12-13T14:47:08.047Z,97972.38
2022-12-13T14:49:38.933Z,97963.41
2022-12-13T14:52:09.337Z,97973.97
2022-12-13T14:54:57.953Z,97968.34
2022-12-13T14:57:28.524Z,97965.69
2022-12-13T14:59:57.618Z,97970.28
2022-12-13T15:02:35.005Z,97969.38
2022-12-13T15:05:06.127Z,97969.94
2022-12-13T15:07:39.300Z,97966.47
2022-12-13T15:10:20.519Z,97968.59
2022-12-13T15:12:48.300Z,97962.03
2022-12-13T15:15:29.547Z,97963.53
2022-12-13T15:18:18.606Z,97958.72
2022-12-13T15:20:47.151Z,97970.09
2022-12-13T15:23:20.006Z,97978.53
2022-12-13T15:25:50.325Z,97975.44
2022-12-13T15:28:21.691Z,97973.31
2022-12-13T15:30:49.441Z,97973.69
2022-12-13T15:33:16.586Z,97969.28
2022-12-13T15:35:43.679Z,97965.94
2022-12-13T15:38:28.620Z,97967.41
2022-12-13T15:40:56.221Z,97968.47
2022-12-13T15:43:32.065Z,97974.09
2022-12-13T15:45:59.355Z,97960.47
2022-12-13T15:48:38.257Z,97961.91
2022-12-13T15:51:28.956Z,97967.66
2022-12-13T15:54:08.961Z,97971.41
2022-12-13T15:56:41.470Z,97979.69
2022-12-13T15:59:25.851Z,97965.59
2022-12-13T16:01:58.001Z,97970.31
2022-12-13T16:04:28.601Z,97965.59
2022-12-13T16:07:00.614Z,97964.25
2022-12-13T16:09:33.679Z,97963.03
2022-12-13T16:12:07.124Z,97966.63
2022-12-13T16:14:40.108Z,97950.97
2022-12-13T16:17:27.222Z,97946.03
2022-12-13T16:19:55.917Z,97939.59
2022-12-13T16:22:49.553Z,97942.69
2022-12-13T16:25:25.408Z,97934.66
2022-12-13T16:27:59.715Z,97938.94
2022-12-13T16:30:47.867Z,97937.56
2022-12-13T16:33:26.412Z,97941.44
2022-12-13T16:35:55.876Z,97938.34
2022-12-13T16:38:26.462Z,97946.88
2022-12-13T16:40:59.387Z,97949.31
2022-12-13T16:43:33.369Z,97952.78
2022-12-13T16:47:16.938Z,97946.34
2022-12-13T16:48:51.541Z,97944.13
2022-12-13T16:51:19.706Z,97931.97
2022-12-13T16:53:49.326Z,97938.78
2022-12-13T16:56:25.138Z,97932.75
2022-12-13T16:58:53.955Z,97930.91
2022-12-13T17:01:21.216Z,97917.41
2022-12-13T17:03:48.438Z,97911.13
2022-12-13T17:06:22.840Z,97910.84
2022-12-13T17:08:49.425Z,97912.63
2022-12-13T17:11:18.340Z,97908.66
2022-12-13T17:13:47.478Z,97903.69
2022-12-13T17:16:14.814Z,97903.31
2022-12-13T17:18:42.188Z,97903.03
2022-12-13T17:21:11.903Z,97906.78
2022-12-13T17:23:38.722Z,97900.38
2022-12-13T17:26:07.094Z,97897.84
2022-12-13T17:28:34.299Z,97903.19
2022-12-13T17:31:08.782Z,97894.09
2022-12-13T17:33:36.526Z,97900.63
2022-12-13T17:36:06.817Z,97901.16
2022-12-13T17:38:33.628Z,97901.81
2022-12-13T17:41:04.799Z,97897.00
2022-12-13T17:43:35.154Z,97893.25
2022-12-13T17:46:14.897Z,97889.94
2022-12-13T17:48:42.876Z,97891.09
2022-12-13T17:51:14.000Z,97872.78
2022-12-13T17:53:52.923Z,97877.84
2022-12-13T17:56:20.352Z,97875.41
2022-12-13T17:58:47.012Z,97868.13
2022-12-13T18:01:24.464Z,97873.84
2022-12-13T18:03:53.791Z,97868.91
2022-12-13T18:06:20.421Z,97865.03
2022-12-13T18:08:47.812Z,97862.75
2022-12-13T18:11:33.766Z,97866.91
2022-12-13T18:14:06.470Z,97872.69
2022-12-13T18:16:37.490Z,97873.47
2022-12-13T18:19:10.680Z,97878.53
2022-12-13T18:21:37.713Z,97873.53
2022-12-13T18:24:05.783Z,97879.25
2022-12-13T18:26:32.929Z,97872.69
2022-12-13T18:28:59.517Z,97876.25
2022-12-13T18:31:26.266Z,97884.63
2022-12-13T18:33:54.139Z,97879.13
2022-12-13T18:36:23.697Z,97880.28
2022-12-13T18:38:50.514Z,97879.31
2022-12-13T18:41:20.488Z,97881.84
2022-12-13T18:43:47.621Z,97880.97
2022-12-13T18:46:15.382Z,97895.22
2022-12-13T18:48:42.296Z,97891.63
2022-12-13T18:51:10.483Z,97892.75
2022-12-13T18:53:43.903Z,97899.28
2022-12-13T18:56:18.417Z,97892.84
2022-12-13T18:58:46.997Z,97898.19
2022-12-13T19:01:17.973Z,97907.97
2022-12-13T19:03:52.308Z,97903.94
2022-12-13T19:06:22.208Z,97915.03
2022-12-13T19:08:57.519Z,97915.56
2022-12-13T19:11:26.385Z,97897.72
2022-12-13T19:13:53.502Z,97898.44
2022-12-13T19:16:25.033Z,97891.50
2022-12-13T19:18:51.769Z,97888.59
2022-12-13T19:21:21.264Z,97873.53
2022-12-13T19:23:55.937Z,97883.97
2022-12-13T19:26:24.829Z,97871.28
2022-12-13T19:28:51.460Z,97871.84
2022-12-13T19:31:23.170Z,97879.84
2022-12-13T19:33:58.817Z,97874.25
2022-12-13T19:36:32.841Z,97871.28
2022-12-13T19:39:02.595Z,97865.41
2022-12-13T19:41:32.202Z,97865.28
2022-12-13T19:44:05.026Z,97856.06
2022-12-13T19:46:37.587Z,97853.53
2022-12-13T19:49:13.007Z,97848.69
2022-12-13T19:51:49.465Z,97840.56
2022-12-13T19:54:18.704Z,97845.25
2022-12-13T19:56:45.542Z,97840.56
2022-12-13T19:59:12.229Z,97843.91
2022-12-13T20:01:38.956Z,97837.91
2022-12-13T20:04:12.224Z,97828.94
2022-12-13T20:06:38.884Z,97828.41
2022-12-13T20:09:08.243Z,97816.00
2022-12-13T20:11:37.102Z,97803.94
2022-12-13T20:14:04.221Z,97803.69
2022-12-13T20:16:33.495Z,97803.16
2022-12-13T20:19:01.158Z,97804.34
2022-12-13T20:21:29.396Z,97807.16
2022-12-13T20:23:57.783Z,97809.84
2022-12-13T20:26:32.815Z,97805.81
2022-12-13T20:29:02.654Z,97812.78
2022-12-13T20:31:36.615Z,97809.69
2022-12-13T20:34:10.181Z,97806.88
2022-12-13T20:36:42.029Z,97800.59
2022-12-13T20:39:13.627Z,97783.22
2022-12-13T20:41:43.340Z,97781.88
2022-12-13T20:44:12.755Z,97778.00
2022-12-13T20:46:39.976Z,97772.38
2022-12-13T20:49:10.219Z,97779.19
2022-12-13T20:51:41.682Z,97782.56
2022-12-13T20:54:12.886Z,97781.19
2022-12-13T20:56:41.712Z,97792.44
2022-12-13T20:59:12.063Z,97788.03
2022-12-13T21:01:44.629Z,97776.41
2022-12-13T21:04:18.771Z,97764.34
2022-12-13T21:06:45.429Z,97759.91
2022-12-13T21:09:12.370Z,97759.63
2022-12-13T21:11:49.788Z,97764.31
2022-12-13T21:14:22.302Z,97768.84
2022-12-13T21:16:58.131Z,97767.09
2022-12-13T21:19:27.769Z,97766.06
2022-12-13T21:21:55.796Z,97763.75
2022-12-13T21:24:24.764Z,97758.00
2022-12-13T21:26:52.204Z,97754.94
2022-12-13T21:29:21.703Z,97753.47
2022-12-13T21:31:58.707Z,97745.59
2022-12-13T21:34:25.391Z,97757.91
2022-12-13T21:36:53.013Z,97754.72
2022-12-13T21:39:27.743Z,97741.56
2022-12-13T21:41:54.742Z,97741.97
2022-12-13T21:44:24.791Z,97739.94
2022-12-13T21:49:38.741Z,97753.72
2022-12-13T21:52:08.489Z,97760.78
2022-12-13T21:54:37.243Z,97760.13
2022-12-13T21:57:22.640Z,97760.13
2022-12-13T21:59:49.336Z,97752.34
2022-12-13T22:02:18.529Z,97760.38
2022-12-13T22:04:50.936Z,97756.53
2022-12-13T22:07:24.016Z,97758.81
2022-12-13T22:09:52.497Z,97751.06
2022-12-13T22:12:23.377Z,97748.09
2022-12-13T22:14:51.018Z,97747.72
2022-12-13T22:17:18.917Z,97736.88
2022-12-13T22:19:48.459Z,97724.16
2022-12-13T22:22:17.862Z,97713.66
2022-12-13T22:24:53.110Z,97722.84
2022-12-13T22:27:24.078Z,97717.91
2022-12-13T22:29:52.918Z,97725.63
2022-12-13T22:32:20.569Z,97731.63
2022-12-13T22:34:47.543Z,97733.50
2022-12-13T22:37:14.605Z,97722.47
2022-12-13T22:39:41.184Z,97707.84
2022-12-13T22:42:08.337Z,97715.34
2022-12-13T22:44:35.242Z,97697.25
2022-12-13T22:47:02.116Z,97696.56
2022-12-13T22:49:28.824Z,97698.44
2022-12-13T22:51:55.534Z,97696.69
2022-12-13T22:54:22.482Z,97685.56
2022-12-13T22:56:50.435Z,97688.53
2022-12-13T22:59:17.263Z,97676.41
2022-12-13T23:01:47.530Z,97671.31
2022-12-13T23:04:15.261Z,97673.03
2022-12-13T23:06:42.045Z,97671.84
2022-12-13T23:09:12.020Z,97662.06
2022-12-13T23:11:57.213Z,97665.25
2022-12-13T23:14:30.235Z,97671.59
2022-12-13T23:16:59.820Z,97654.06
2022-12-13T23:19:51.358Z,97654.59
2022-12-13T23:22:14.792Z,97659.09
2022-12-13T23:24:41.430Z,97633.50
2022-12-13T23:27:08.180Z,97628.94
2022-12-13T23:29:34.925Z,97628.56
2022-12-13T23:32:01.701Z,97642.38
2022-12-13T23:34:28.265Z,97643.25
2022-12-13T23:36:54.847Z,97644.13
2022-12-13T23:39:21.502Z,97635.09
2022-12-13T23:41:48.263Z,97640.31
2022-12-13T23:44:14.938Z,97641.78
2022-12-13T23:46:41.728Z,97631.31
2022-12-13T23:49:15.139Z,97627.19
2022-12-13T23:51:41.882Z,97620.34
2022-12-13T23:54:09.800Z,97623.97
2022-12-13T23:56:36.437Z,97623.84
2022-12-13T23:59:03.070Z,97615.75
